createdAt,value
2019-03-05T00:01:27.229Z,71.12
2019-03-05T00:03:57.631Z,71.63
2019-03-05T00:06:27.911Z,70.84
2019-03-05T00:08:59.183Z,70.39
2019-03-05T00:11:29.400Z,70.79
2019-03-05T00:13:59.623Z,70.31
2019-03-05T00:16:29.999Z,70.43
2019-03-05T00:19:00.185Z,71.08
2019-03-05T00:21:32.713Z,70.96
2019-03-05T00:24:39.180Z,70.94
2019-03-05T00:27:09.434Z,71.39
2019-03-05T00:30:27.010Z,71.43
2019-03-05T00:33:05.164Z,70.54
2019-03-05T00:36:11.231Z,71.13
2019-03-05T00:39:20.600Z,70.96
2019-03-05T00:42:20.954Z,71.26
2019-03-05T00:45:28.825Z,71.06
2019-03-05T00:48:58.109Z,70.32
2019-03-05T00:52:02.401Z,70.44
2019-03-05T00:54:53.918Z,70.41
2019-03-05T00:58:00.084Z,70.15
2019-03-05T01:01:13.591Z,70.05
2019-03-05T01:04:09.666Z,70.55
2019-03-05T01:06:41.689Z,70.27
2019-03-05T01:09:17.377Z,70.36
2019-03-05T01:11:47.962Z,70.77
2019-03-05T01:14:18.861Z,70.08
2019-03-05T01:16:49.230Z,70.64
2019-03-05T01:19:19.436Z,70.75
2019-03-05T01:21:49.811Z,69.70
2019-03-05T01:24:20.199Z,70.14
2019-03-05T01:26:50.391Z,70.10
2019-03-05T01:29:20.803Z,70.31
2019-03-05T01:32:17.156Z,69.45
2019-03-05T01:35:06.379Z,69.37
2019-03-05T01:37:36.694Z,69.64
2019-03-05T01:40:12.722Z,69.79
2019-03-05T01:42:42.973Z,69.53
2019-03-05T01:45:15.393Z,69.42
2019-03-05T01:47:45.592Z,69.14
2019-03-05T01:50:15.851Z,69.69
2019-03-05T01:52:46.197Z,69.58
2019-03-05T01:55:16.423Z,70.25
2019-03-05T01:57:46.613Z,69.18
2019-03-05T02:00:17.112Z,69.51
2019-03-05T02:02:48.691Z,69.16
2019-03-05T02:05:20.099Z,69.25
2019-03-05T02:07:50.640Z,68.90
2019-03-05T02:10:22.067Z,68.53
2019-03-05T02:12:52.306Z,68.66
2019-03-05T02:15:22.623Z,68.77
2019-03-05T02:17:52.990Z,68.63
2019-03-05T02:20:25.056Z,68.06
2019-03-05T02:23:13.656Z,67.99
2019-03-05T02:26:10.488Z,68.06
2019-03-05T02:29:23.713Z,67.69
2019-03-05T02:32:35.393Z,67.38
2019-03-05T02:35:32.967Z,67.61
2019-03-05T02:38:51.370Z,67.39
2019-03-05T02:41:33.718Z,66.92
2019-03-05T02:44:29.593Z,67.40
2019-03-05T02:47:26.354Z,67.03
2019-03-05T02:50:34.401Z,67.14
2019-03-05T02:53:40.453Z,67.61
2019-03-05T02:56:42.831Z,67.50
2019-03-05T02:59:11.339Z,67.54
2019-03-05T03:02:12.929Z,66.89
2019-03-05T03:04:46.101Z,67.21
2019-03-05T03:07:16.564Z,67.25
2019-03-05T03:10:10.434Z,67.98
2019-03-05T03:12:40.806Z,67.36
2019-03-05T03:15:13.958Z,68.07
2019-03-05T03:17:44.147Z,67.82
2019-03-05T03:20:16.408Z,67.47
2019-03-05T03:22:46.686Z,68.10
2019-03-05T03:25:24.530Z,67.71
2019-03-05T03:27:55.115Z,67.56
2019-03-05T03:30:26.794Z,67.84
2019-03-05T03:32:57.050Z,68.21
2019-03-05T03:35:27.253Z,68.15
2019-03-05T03:37:57.503Z,68.26
2019-03-05T03:40:27.705Z,68.28
2019-03-05T03:42:58.074Z,68.69
2019-03-05T03:45:28.576Z,68.55
2019-03-05T03:47:58.759Z,68.35
2019-03-05T03:50:28.996Z,68.32
2019-03-05T03:52:59.204Z,68.84
2019-03-05T03:55:30.948Z,68.59
2019-03-05T03:58:01.198Z,68.57
2019-03-05T04:00:31.467Z,68.75
2019-03-05T04:03:01.870Z,68.52
2019-03-05T04:05:32.158Z,68.33
2019-03-05T04:08:03.395Z,68.54
2019-03-05T04:10:45.434Z,68.26
2019-03-05T04:13:15.751Z,68.23
2019-03-05T04:15:46.274Z,68.79
2019-03-05T04:18:16.729Z,68.85
2019-03-05T04:20:50.259Z,68.60
2019-03-05T04:23:20.507Z,68.32
2019-03-05T04:25:50.767Z,68.35
2019-03-05T04:28:22.093Z,68.45
2019-03-05T04:30:52.290Z,68.72
2019-03-05T04:33:22.539Z,68.66
2019-03-05T04:35:52.965Z,68.25
2019-03-05T04:38:23.200Z,68.15
2019-03-05T04:40:53.435Z,68.50
2019-03-05T04:43:23.683Z,67.39
2019-03-05T04:46:25.181Z,67.76
2019-03-05T04:49:26.648Z,67.49
2019-03-05T04:52:03.704Z,67.45
2019-03-05T04:54:34.083Z,67.79
2019-03-05T04:57:04.719Z,67.64
2019-03-05T04:59:34.976Z,66.23
2019-03-05T05:02:05.276Z,67.19
2019-03-05T05:04:35.492Z,66.58
2019-03-05T05:07:05.804Z,66.27
2019-03-05T05:09:38.027Z,66.63
2019-03-05T05:12:08.406Z,66.17
2019-03-05T05:14:38.728Z,66.09
2019-03-05T05:17:09.984Z,66.42
2019-03-05T05:19:40.248Z,66.95
2019-03-05T05:22:10.454Z,66.38
2019-03-05T05:24:40.702Z,66.91
2019-03-05T05:27:10.917Z,66.77
2019-03-05T05:29:42.819Z,67.12
2019-03-05T05:32:13.095Z,67.10
2019-03-05T05:34:43.360Z,67.25
2019-03-05T05:37:33.359Z,67.42
2019-03-05T05:40:37.783Z,67.10
2019-03-05T05:43:10.609Z,67.17
2019-03-05T05:45:45.845Z,67.29
2019-03-05T05:48:30.751Z,66.87
2019-03-05T05:51:01.180Z,66.38
2019-03-05T05:53:31.433Z,67.81
2019-03-05T05:56:03.960Z,67.19
2019-03-05T05:58:37.588Z,66.14
2019-03-05T06:01:13.666Z,66.02
2019-03-05T06:03:46.258Z,65.53
2019-03-05T06:06:23.544Z,65.50
2019-03-05T06:08:53.829Z,65.40
2019-03-05T06:11:24.457Z,65.80
2019-03-05T06:13:54.878Z,65.41
2019-03-05T06:16:25.213Z,65.44
2019-03-05T06:18:55.516Z,64.93
2019-03-05T06:21:27.712Z,64.98
2019-03-05T06:23:58.114Z,65.30
2019-03-05T06:26:28.394Z,64.59
2019-03-05T06:28:58.606Z,65.01
2019-03-05T06:31:29.548Z,64.77
2019-03-05T06:33:59.880Z,65.58
2019-03-05T06:39:52.926Z,65.54
2019-03-05T06:42:23.223Z,65.41
2019-03-05T06:44:53.599Z,65.72
2019-03-05T06:47:27.894Z,65.92
2019-03-05T06:49:58.137Z,65.98
2019-03-05T06:52:28.410Z,65.73
2019-03-05T06:55:03.111Z,66.28
2019-03-05T06:57:33.404Z,66.30
2019-03-05T07:00:04.032Z,65.79
2019-03-05T07:02:34.565Z,65.02
2019-03-05T07:05:04.898Z,65.01
2019-03-05T07:07:35.174Z,65.80
2019-03-05T07:10:37.815Z,64.83
2019-03-05T07:13:14.030Z,61.83
2019-03-05T07:16:22.428Z,52.77
2019-03-05T07:19:57.542Z,57.01
2019-03-05T07:22:31.626Z,51.93
2019-03-05T07:25:01.814Z,58.97
2019-03-05T07:27:34.255Z,59.88
2019-03-05T07:30:20.531Z,60.20
2019-03-05T07:32:50.890Z,58.47
2019-03-05T07:35:33.102Z,57.46
2019-03-05T07:38:04.623Z,58.51
2019-03-05T07:40:35.691Z,61.16
2019-03-05T07:43:12.090Z,61.37
2019-03-05T07:45:44.497Z,61.88
2019-03-05T07:48:14.706Z,62.08
2019-03-05T07:50:44.998Z,63.38
2019-03-05T07:53:15.389Z,63.55
2019-03-05T07:55:45.935Z,63.01
2019-03-05T07:58:16.178Z,56.53
2019-03-05T08:00:46.506Z,54.29
2019-03-05T08:03:16.873Z,51.68
2019-03-05T08:05:47.663Z,49.02
2019-03-05T08:08:55.029Z,48.65
2019-03-05T08:11:25.308Z,51.22
2019-03-05T08:14:34.818Z,51.13
2019-03-05T08:17:06.136Z,52.39
2019-03-05T08:19:36.327Z,54.42
2019-03-05T08:22:08.915Z,56.04
2019-03-05T08:24:40.407Z,58.26
2019-03-05T08:27:10.865Z,59.26
2019-03-05T08:29:41.220Z,58.16
2019-03-05T08:32:11.397Z,58.56
2019-03-05T08:34:41.547Z,58.13
2019-03-05T08:37:13.522Z,60.24
2019-03-05T08:39:44.032Z,60.24
2019-03-05T08:42:16.030Z,60.91
2019-03-05T08:44:50.547Z,60.33
2019-03-05T08:47:18.250Z,60.39
2019-03-05T08:49:49.595Z,60.59
2019-03-05T08:52:19.887Z,60.73
2019-03-05T08:54:52.743Z,58.79
2019-03-05T08:57:22.990Z,58.63
2019-03-05T08:59:53.446Z,58.78
2019-03-05T09:02:25.346Z,59.84
2019-03-05T09:04:55.826Z,60.07
2019-03-05T09:07:26.556Z,59.65
2019-03-05T09:09:56.892Z,60.05
2019-03-05T09:12:28.335Z,60.20
2019-03-05T09:15:08.296Z,59.74
2019-03-05T09:17:40.972Z,60.09
2019-03-05T09:20:14.515Z,59.39
2019-03-05T09:22:47.554Z,57.88
2019-03-05T09:25:20.652Z,58.49
2019-03-05T09:27:57.928Z,58.40
2019-03-05T09:30:39.483Z,58.44
2019-03-05T09:33:11.798Z,56.28
2019-03-05T09:35:42.992Z,56.46
2019-03-05T09:38:14.049Z,57.99
2019-03-05T09:40:49.256Z,57.50
2019-03-05T09:43:23.049Z,57.49
2019-03-05T09:45:53.476Z,57.04
2019-03-05T09:48:27.997Z,56.98
2019-03-05T09:50:59.464Z,57.79
2019-03-05T09:53:32.294Z,57.66
2019-03-05T09:56:05.813Z,58.71
2019-03-05T09:58:38.489Z,59.15
2019-03-05T10:01:08.891Z,59.12
2019-03-05T10:03:39.614Z,58.27
2019-03-05T10:06:09.878Z,58.88
2019-03-05T10:08:40.248Z,59.54
2019-03-05T10:11:10.652Z,60.09
2019-03-05T10:13:41.048Z,62.46
2019-03-05T10:16:14.791Z,62.72
2019-03-05T10:18:45.131Z,62.13
2019-03-05T10:21:16.413Z,61.37
2019-03-05T10:23:47.135Z,61.78
2019-03-05T10:26:18.874Z,61.76
2019-03-05T10:28:49.714Z,60.63
2019-03-05T10:31:21.862Z,60.73
2019-03-05T10:33:53.072Z,61.08
2019-03-05T10:36:23.457Z,60.76
2019-03-05T10:39:00.813Z,61.08
2019-03-05T10:41:39.967Z,60.19
2019-03-05T10:44:19.170Z,60.67
2019-03-05T10:46:58.110Z,59.65
2019-03-05T10:49:35.859Z,59.27
2019-03-05T10:52:07.022Z,60.08
2019-03-05T10:54:39.679Z,58.37
2019-03-05T10:57:10.252Z,58.50
2019-03-05T10:59:40.790Z,58.48
2019-03-05T11:02:11.147Z,58.74
2019-03-05T11:04:45.901Z,58.10
2019-03-05T11:07:23.115Z,58.17
2019-03-05T11:09:54.991Z,57.77
2019-03-05T11:12:25.420Z,58.96
2019-03-05T11:14:56.938Z,58.88
2019-03-05T11:17:27.846Z,60.48
2019-03-05T11:19:58.185Z,61.23
2019-03-05T11:22:28.425Z,63.90
2019-03-05T11:24:58.980Z,66.33
2019-03-05T11:27:29.184Z,68.07
2019-03-05T11:29:59.922Z,68.40
2019-03-05T11:32:30.167Z,69.22
2019-03-05T11:35:00.418Z,69.65
2019-03-05T11:37:30.869Z,68.56
2019-03-05T11:40:02.193Z,69.54
2019-03-05T11:42:32.458Z,67.67
2019-03-05T11:45:07.420Z,70.94
2019-03-05T11:47:34.867Z,72.29
2019-03-05T11:50:05.699Z,74.20
2019-03-05T11:52:36.012Z,75.22
2019-03-05T11:55:07.658Z,75.49
2019-03-05T11:57:37.898Z,74.64
2019-03-05T12:00:11.801Z,74.23
2019-03-05T12:02:42.042Z,76.29
2019-03-05T12:05:12.692Z,74.31
2019-03-05T12:07:43.130Z,75.62
2019-03-05T12:10:15.010Z,73.17
2019-03-05T12:12:45.215Z,71.47
2019-03-05T12:15:16.697Z,73.30
2019-03-05T12:17:48.257Z,73.75
2019-03-05T12:20:19.710Z,73.71
2019-03-05T12:22:49.886Z,73.51
2019-03-05T12:25:20.420Z,73.77
2019-03-05T12:27:50.807Z,74.07
2019-03-05T12:30:22.495Z,73.46
2019-03-05T12:32:52.824Z,75.28
2019-03-05T12:35:23.798Z,81.66
2019-03-05T12:37:54.061Z,83.90
2019-03-05T12:40:24.818Z,85.31
2019-03-05T12:43:03.959Z,86.39
2019-03-05T12:45:34.274Z,86.78
2019-03-05T12:48:04.616Z,85.87
2019-03-05T12:50:35.773Z,84.95
2019-03-05T12:53:06.471Z,86.49
2019-03-05T12:55:37.022Z,85.62
2019-03-05T12:58:07.221Z,86.15
2019-03-05T13:00:37.887Z,86.00
2019-03-05T13:03:08.263Z,85.21
2019-03-05T13:05:38.554Z,85.26
2019-03-05T13:08:08.877Z,86.11
2019-03-05T13:10:45.142Z,85.70
2019-03-05T13:13:15.619Z,85.84
2019-03-05T13:15:45.891Z,85.20
2019-03-05T13:18:17.031Z,85.44
2019-03-05T13:20:51.607Z,85.23
2019-03-05T13:23:21.897Z,85.39
2019-03-05T13:25:52.338Z,85.82
2019-03-05T13:28:22.784Z,85.79
2019-03-05T13:30:53.252Z,84.59
2019-03-05T13:33:23.625Z,86.26
2019-03-05T13:35:54.024Z,85.35
2019-03-05T13:38:24.788Z,85.23
2019-03-05T13:40:55.116Z,86.81
2019-03-05T13:43:25.397Z,85.74
2019-03-05T13:45:55.743Z,86.33
2019-03-05T13:48:59.407Z,85.65
2019-03-05T13:52:17.351Z,84.73
2019-03-05T13:55:15.738Z,84.91
2019-03-05T13:58:18.159Z,85.01
2019-03-05T14:00:50.789Z,84.51
2019-03-05T14:03:23.768Z,83.76
2019-03-05T14:06:34.132Z,84.12
2019-03-05T14:09:21.601Z,85.25
2019-03-05T14:11:52.987Z,84.23
2019-03-05T14:14:30.251Z,84.32
2019-03-05T14:17:12.422Z,84.22
2019-03-05T14:19:45.856Z,83.44
2019-03-05T14:22:16.154Z,84.15
2019-03-05T14:24:46.843Z,83.36
2019-03-05T14:27:20.071Z,84.32
2019-03-05T14:29:50.455Z,84.07
2019-03-05T14:32:20.662Z,84.89
2019-03-05T14:35:22.186Z,84.65
2019-03-05T14:37:53.103Z,84.46
2019-03-05T14:40:32.369Z,86.25
2019-03-05T14:43:28.775Z,85.86
2019-03-05T14:46:12.499Z,85.86
2019-03-05T14:48:48.254Z,86.03
2019-03-05T14:51:20.163Z,85.27
2019-03-05T14:53:50.411Z,85.97
2019-03-05T14:56:20.737Z,85.89
2019-03-05T14:58:53.160Z,86.28
2019-03-05T15:01:24.349Z,85.79
2019-03-05T15:03:54.657Z,86.33
2019-03-05T15:06:24.967Z,85.27
2019-03-05T15:08:58.349Z,86.10
2019-03-05T15:11:30.239Z,84.96
2019-03-05T15:14:02.520Z,83.63
2019-03-05T15:16:32.923Z,83.93
2019-03-05T15:19:05.853Z,84.41
2019-03-05T15:21:37.276Z,84.47
2019-03-05T15:24:09.199Z,83.67
2019-03-05T15:26:41.786Z,83.90
2019-03-05T15:29:16.290Z,83.87
2019-03-05T15:31:46.686Z,84.07
2019-03-05T15:34:17.094Z,83.75
2019-03-05T15:36:47.318Z,83.25
2019-03-05T15:39:49.501Z,83.74
2019-03-05T15:42:23.439Z,84.25
2019-03-05T15:44:55.047Z,83.74
2019-03-05T15:47:25.295Z,83.35
2019-03-05T15:50:00.554Z,83.50
2019-03-05T15:52:32.266Z,82.77
2019-03-05T15:55:05.602Z,82.33
2019-03-05T15:57:36.168Z,82.17
2019-03-05T16:00:14.496Z,82.30
2019-03-05T16:02:45.371Z,82.50
2019-03-05T16:05:20.707Z,82.19
2019-03-05T16:07:50.977Z,82.31
2019-03-05T16:10:21.329Z,82.60
2019-03-05T16:12:53.295Z,82.94
2019-03-05T16:15:23.918Z,83.68
2019-03-05T16:17:56.485Z,82.78
2019-03-05T16:20:29.613Z,83.64
2019-03-05T16:23:00.385Z,83.48
2019-03-05T16:25:30.732Z,83.00
2019-03-05T16:28:06.453Z,83.13
2019-03-05T16:30:53.395Z,83.78
2019-03-05T16:33:45.812Z,83.48
2019-03-05T16:36:44.360Z,83.36
2019-03-05T16:39:33.302Z,84.04
2019-03-05T16:42:37.695Z,84.41
2019-03-05T16:45:18.976Z,83.83
2019-03-05T16:48:03.627Z,84.12
2019-03-05T16:50:52.599Z,84.75
2019-03-05T16:53:48.630Z,84.29
2019-03-05T16:56:54.314Z,84.64
2019-03-05T17:00:01.953Z,84.88
2019-03-05T17:02:51.108Z,85.17
2019-03-05T17:05:44.970Z,84.54
2019-03-05T17:08:31.420Z,84.75
2019-03-05T17:11:19.739Z,85.53
2019-03-05T17:13:50.323Z,86.12
2019-03-05T17:16:20.598Z,86.52
2019-03-05T17:18:50.989Z,86.69
2019-03-05T17:21:27.556Z,86.69
2019-03-05T17:23:53.805Z,86.70
2019-03-05T17:26:24.127Z,86.16
2019-03-05T17:28:54.649Z,86.13
2019-03-05T17:31:25.069Z,86.81
2019-03-05T17:33:55.343Z,87.20
2019-03-05T17:36:25.752Z,88.18
2019-03-05T17:38:57.552Z,88.11
2019-03-05T17:41:27.916Z,87.17
2019-03-05T17:43:58.359Z,87.60
2019-03-05T17:46:28.658Z,88.12
2019-03-05T17:48:59.059Z,88.67
2019-03-05T17:51:30.987Z,89.58
2019-03-05T17:54:01.745Z,89.61
2019-03-05T17:56:33.414Z,89.48
2019-03-05T17:59:03.785Z,89.74
2019-03-05T18:01:35.438Z,90.40
2019-03-05T18:04:05.951Z,89.56
2019-03-05T18:06:36.302Z,88.78
2019-03-05T18:09:08.022Z,89.70
2019-03-05T18:11:39.338Z,89.64
2019-03-05T18:14:09.819Z,88.93
2019-03-05T18:16:40.219Z,88.63
2019-03-05T18:19:10.398Z,88.60
2019-03-05T18:21:40.931Z,88.88
2019-03-05T18:24:11.314Z,88.68
2019-03-05T18:26:41.588Z,88.03
2019-03-05T18:29:12.995Z,87.49
2019-03-05T18:31:43.448Z,87.47
2019-03-05T18:34:14.136Z,87.72
2019-03-05T18:36:44.435Z,88.21
2019-03-05T18:39:15.232Z,88.22
2019-03-05T18:41:45.944Z,87.69
2019-03-05T18:44:16.674Z,87.37
2019-03-05T18:46:47.035Z,88.29
2019-03-05T18:49:17.442Z,88.36
2019-03-05T18:51:51.758Z,88.48
2019-03-05T18:54:23.568Z,87.37
2019-03-05T18:56:54.399Z,87.65
2019-03-05T18:59:25.314Z,87.15
2019-03-05T19:01:56.203Z,87.21
2019-03-05T19:04:26.688Z,86.85
2019-03-05T19:06:58.600Z,86.67
2019-03-05T19:09:28.799Z,87.41
2019-03-05T19:11:59.143Z,86.95
2019-03-05T19:14:29.425Z,86.78
2019-03-05T19:16:59.989Z,87.10
2019-03-05T19:19:30.298Z,87.48
2019-03-05T19:22:02.918Z,87.59
2019-03-05T19:24:33.815Z,87.25
2019-03-05T19:27:04.343Z,87.22
2019-03-05T19:29:34.591Z,87.26
2019-03-05T19:32:05.165Z,87.39
2019-03-05T19:34:35.374Z,87.09
2019-03-05T19:37:08.860Z,87.19
2019-03-05T19:39:39.134Z,87.74
2019-03-05T19:42:09.332Z,87.42
2019-03-05T19:44:39.561Z,87.69
2019-03-05T19:47:09.836Z,87.78
2019-03-05T19:49:40.258Z,87.84
2019-03-05T19:52:10.475Z,87.83
2019-03-05T19:54:40.734Z,87.76
2019-03-05T19:57:11.048Z,87.33
2019-03-05T19:59:41.345Z,87.55
2019-03-05T20:02:11.619Z,87.59
2019-03-05T20:04:42.039Z,87.31
2019-03-05T20:07:12.365Z,87.62
2019-03-05T20:09:42.606Z,87.07
2019-03-05T20:12:12.842Z,87.35
2019-03-05T20:14:43.173Z,87.28
2019-03-05T20:17:14.444Z,86.77
2019-03-05T20:19:45.094Z,86.98
2019-03-05T20:22:15.629Z,86.86
2019-03-05T20:24:46.034Z,86.79
2019-03-05T20:27:17.321Z,86.75
2019-03-05T20:29:47.669Z,86.84
2019-03-05T20:32:30.381Z,86.73
2019-03-05T20:35:01.060Z,86.37
2019-03-05T20:37:37.968Z,86.71
2019-03-05T20:40:11.445Z,86.88
2019-03-05T20:42:42.682Z,86.76
2019-03-05T20:45:16.539Z,86.72
2019-03-05T20:47:47.400Z,86.68
2019-03-05T20:50:23.235Z,86.64
2019-03-05T20:52:55.067Z,86.79
2019-03-05T20:55:25.801Z,86.61
2019-03-05T20:57:56.088Z,86.72
2019-03-05T21:00:31.685Z,86.85
2019-03-05T21:03:17.407Z,86.79
2019-03-05T21:05:51.229Z,87.15
2019-03-05T21:08:22.209Z,86.88
2019-03-05T21:10:52.883Z,86.77
2019-03-05T21:13:23.998Z,86.46
2019-03-05T21:15:54.807Z,86.98
2019-03-05T21:18:25.573Z,86.76
2019-03-05T21:20:56.425Z,86.82
2019-03-05T21:23:28.010Z,86.61
2019-03-05T21:25:59.394Z,86.69
2019-03-05T21:28:30.591Z,86.81
2019-03-05T21:31:01.238Z,86.53
2019-03-05T21:33:33.711Z,86.60
2019-03-05T21:36:03.963Z,86.30
2019-03-05T21:38:34.412Z,85.99
2019-03-05T21:41:04.721Z,85.66
2019-03-05T21:43:43.440Z,86.25
2019-03-05T21:46:16.627Z,86.03
2019-03-05T21:48:46.934Z,85.86
2019-03-05T21:51:17.259Z,85.63
2019-03-05T21:53:47.654Z,85.66
2019-03-05T21:56:17.919Z,85.94
2019-03-05T21:58:48.183Z,85.89
2019-03-05T22:01:18.411Z,85.96
2019-03-05T22:03:48.826Z,85.51
2019-03-05T22:06:19.027Z,85.47
2019-03-05T22:08:50.298Z,86.23
2019-03-05T22:11:20.695Z,86.20
2019-03-05T22:13:51.190Z,86.18
2019-03-05T22:16:21.374Z,85.87
2019-03-05T22:18:57.474Z,85.83
2019-03-05T22:21:28.322Z,85.80
2019-03-05T22:23:59.588Z,85.77
2019-03-05T22:26:30.695Z,85.62
2019-03-05T22:29:01.291Z,85.68
2019-03-05T22:31:32.081Z,85.50
2019-03-05T22:34:02.683Z,85.35
2019-03-05T22:36:33.404Z,85.07
2019-03-05T22:39:04.367Z,85.15
2019-03-05T22:41:34.916Z,84.81
2019-03-05T22:44:05.472Z,84.84
2019-03-05T22:46:35.758Z,84.68
2019-03-05T22:49:06.184Z,84.84
2019-03-05T22:51:36.406Z,84.90
2019-03-05T22:54:06.684Z,84.84
2019-03-05T22:56:37.007Z,84.95
2019-03-05T22:59:07.625Z,84.42
2019-03-05T23:01:40.447Z,84.27
2019-03-05T23:04:13.345Z,85.01
2019-03-05T23:06:43.618Z,84.46
2019-03-05T23:09:24.429Z,84.47
2019-03-05T23:11:55.020Z,84.43
2019-03-05T23:14:25.585Z,84.56
2019-03-05T23:16:55.989Z,85.12
2019-03-05T23:19:27.959Z,85.36
2019-03-05T23:21:58.205Z,85.01
2019-03-05T23:24:28.655Z,84.45
2019-03-05T23:26:59.293Z,84.87
2019-03-05T23:29:41.651Z,85.08
2019-03-05T23:32:12.409Z,85.77
2019-03-05T23:34:42.680Z,85.21
2019-03-05T23:37:12.913Z,85.63
2019-03-05T23:39:43.442Z,85.23
2019-03-05T23:42:13.653Z,85.43
2019-03-05T23:44:43.881Z,85.41
2019-03-05T23:47:14.291Z,85.55
2019-03-05T23:49:44.570Z,85.24
2019-03-05T23:52:14.804Z,85.27
2019-03-05T23:54:45.026Z,85.08
2019-03-05T23:57:17.054Z,85.05
2019-03-05T23:59:48.262Z,85.12
